createdAt,value
2019-02-07T00:01:49.189Z,7.27
2019-02-07T00:06:54.662Z,7.70
2019-02-07T00:11:58.417Z,6.83
2019-02-07T00:17:02.238Z,6.77
2019-02-07T00:22:06.086Z,7.17
2019-02-07T00:27:09.771Z,6.60
2019-02-07T00:32:13.494Z,6.50
2019-02-07T00:37:17.264Z,7.20
2019-02-07T00:42:21.055Z,6.33
2019-02-07T00:47:24.789Z,5.67
2019-02-07T00:52:28.540Z,6.30
2019-02-07T00:57:32.278Z,5.90
2019-02-07T01:02:36.518Z,6.53
2019-02-07T01:07:40.162Z,6.73
2019-02-07T01:12:44.276Z,5.70
2019-02-07T01:17:48.034Z,5.57
2019-02-07T01:22:51.708Z,5.90
2019-02-07T01:27:55.812Z,5.73
2019-02-07T01:32:59.471Z,5.57
2019-02-07T01:38:03.196Z,5.30
2019-02-07T01:43:06.975Z,5.60
2019-02-07T01:48:10.665Z,5.80
2019-02-07T01:53:14.477Z,5.27
2019-02-07T01:58:18.294Z,5.20
2019-02-07T02:03:22.063Z,5.60
2019-02-07T02:08:25.852Z,5.40
2019-02-07T02:13:29.604Z,5.10
2019-02-07T02:18:33.316Z,4.80
2019-02-07T02:23:37.330Z,5.37
2019-02-07T02:28:42.126Z,5.40
2019-02-07T02:33:45.796Z,5.50
2019-02-07T02:38:49.524Z,6.40
2019-02-07T02:43:55.151Z,5.77
2019-02-07T02:48:58.608Z,5.43
2019-02-07T02:54:03.593Z,6.17
2019-02-07T02:59:07.330Z,5.60
2019-02-07T03:04:22.668Z,5.33
2019-02-07T03:09:42.433Z,5.40
2019-02-07T03:15:05.235Z,6.37
2019-02-07T03:20:34.789Z,5.73
2019-02-07T03:25:49.752Z,6.17
2019-02-07T03:31:11.371Z,6.10
2019-02-07T03:36:28.783Z,5.17
2019-02-07T03:41:54.472Z,5.07
2019-02-07T03:47:11.217Z,4.93
2019-02-07T03:52:29.610Z,5.20
2019-02-07T03:57:51.006Z,5.03
2019-02-07T04:03:26.604Z,5.77
2019-02-07T04:08:48.207Z,4.43
2019-02-07T04:14:26.441Z,4.73
2019-02-07T04:19:55.029Z,4.70
2019-02-07T04:25:32.829Z,5.10
2019-02-07T04:30:52.227Z,4.43
2019-02-07T04:36:13.809Z,4.50
2019-02-07T04:41:39.776Z,5.07
2019-02-07T04:47:03.998Z,3.90
2019-02-07T04:52:29.815Z,4.17
2019-02-07T04:57:58.932Z,4.27
2019-02-07T05:03:21.089Z,4.20
2019-02-07T05:08:49.966Z,4.00
2019-02-07T05:14:18.936Z,4.20
2019-02-07T05:19:40.429Z,4.30
2019-02-07T05:24:51.476Z,4.23
2019-02-07T05:30:03.930Z,4.70
2019-02-07T05:35:27.051Z,5.17
2019-02-07T05:40:53.132Z,4.63
2019-02-07T05:46:22.311Z,4.87
2019-02-07T05:51:41.623Z,4.50
2019-02-07T05:56:57.714Z,4.70
2019-02-07T06:02:23.753Z,5.77
2019-02-07T06:07:38.174Z,5.70
2019-02-07T06:12:59.905Z,6.00
2019-02-07T06:18:21.583Z,5.60
2019-02-07T06:23:50.227Z,5.83
2019-02-07T06:29:18.956Z,6.23
2019-02-07T06:34:53.481Z,7.10
2019-02-07T06:40:18.911Z,6.50
2019-02-07T06:45:32.151Z,6.13
2019-02-07T06:51:01.647Z,6.60
2019-02-07T06:56:24.633Z,7.20
2019-02-07T07:01:51.712Z,6.53
2019-02-07T07:07:14.611Z,7.27
2019-02-07T07:12:37.632Z,6.77
2019-02-07T07:17:59.241Z,6.10
2019-02-07T07:23:34.348Z,6.23
2019-02-07T07:29:03.940Z,7.00
2019-02-07T07:34:25.412Z,6.87
2019-02-07T07:39:46.779Z,7.10
2019-02-07T07:45:24.758Z,7.03
2019-02-07T07:50:38.624Z,7.03
2019-02-07T07:56:04.737Z,7.53
2019-02-07T08:01:42.228Z,6.80
2019-02-07T08:07:20.773Z,6.50
2019-02-07T08:12:38.318Z,7.13
2019-02-07T08:17:53.216Z,6.87
2019-02-07T08:23:05.957Z,6.50
2019-02-07T08:28:20.652Z,6.60
2019-02-07T08:33:42.165Z,7.67
2019-02-07T08:38:52.651Z,7.57
2019-02-07T08:44:13.843Z,7.60
2019-02-07T08:49:49.053Z,8.33
2019-02-07T08:55:03.296Z,8.37
2019-02-07T09:00:35.907Z,7.67
2019-02-07T09:06:01.576Z,7.20
2019-02-07T09:11:23.318Z,7.07
2019-02-07T09:16:38.722Z,6.37
2019-02-07T09:22:13.933Z,6.93
2019-02-07T09:27:43.418Z,6.53
2019-02-07T09:33:09.759Z,7.00
2019-02-07T09:38:30.884Z,7.57
2019-02-07T09:43:50.829Z,7.17
2019-02-07T09:49:12.325Z,7.47
2019-02-07T09:54:26.283Z,6.67
2019-02-07T09:59:58.121Z,7.23
2019-02-07T10:05:21.087Z,7.07
2019-02-07T10:10:53.325Z,6.30
2019-02-07T10:16:21.043Z,6.40
2019-02-07T10:21:40.006Z,6.10
2019-02-07T10:26:53.295Z,5.80
2019-02-07T10:32:29.112Z,6.40
2019-02-07T10:37:53.947Z,6.40
2019-02-07T10:43:15.600Z,5.50
2019-02-07T10:48:44.272Z,6.27
2019-02-07T10:53:48.228Z,6.07
2019-02-07T10:59:09.811Z,5.60
2019-02-07T11:04:25.231Z,5.60
2019-02-07T11:09:54.264Z,8.00
2019-02-07T11:15:23.343Z,5.70
2019-02-07T11:21:05.134Z,6.77
2019-02-07T11:26:46.073Z,7.00
2019-02-07T11:32:08.047Z,5.57
2019-02-07T11:37:49.413Z,5.37
2019-02-07T11:43:21.419Z,6.23
2019-02-07T11:48:51.671Z,5.60
2019-02-07T11:54:13.416Z,5.67
2019-02-07T11:59:35.848Z,5.80
2019-02-07T12:05:01.744Z,5.93
2019-02-07T12:10:26.272Z,5.30
2019-02-07T12:16:04.539Z,5.50
2019-02-07T12:21:30.491Z,5.50
2019-02-07T12:26:46.928Z,4.90
2019-02-07T12:32:08.424Z,5.30
2019-02-07T12:37:32.183Z,5.63
2019-02-07T12:42:55.070Z,5.80
2019-02-07T12:48:27.440Z,5.27
2019-02-07T12:54:02.409Z,5.90
2019-02-07T12:59:28.048Z,5.90
2019-02-07T13:04:49.778Z,6.60
2019-02-07T13:10:12.170Z,5.70
2019-02-07T13:15:33.851Z,5.90
2019-02-07T13:20:46.990Z,6.37
2019-02-07T13:26:10.606Z,5.70
2019-02-07T13:31:36.265Z,5.60
2019-02-07T13:36:57.028Z,6.17
2019-02-07T13:42:09.480Z,6.03
2019-02-07T13:47:31.443Z,6.20
2019-02-07T13:52:55.454Z,6.07
2019-02-07T13:58:08.882Z,6.43
2019-02-07T14:03:31.944Z,6.27
2019-02-07T14:08:49.007Z,6.20
2019-02-07T14:14:15.080Z,6.70
2019-02-07T14:19:31.870Z,6.70
2019-02-07T14:24:49.322Z,8.10
2019-02-07T14:30:03.268Z,7.50
2019-02-07T14:35:18.137Z,7.07
2019-02-07T14:40:32.808Z,7.47
2019-02-07T14:45:55.280Z,7.80
2019-02-07T14:50:59.006Z,7.37
2019-02-07T14:56:02.744Z,7.63
2019-02-07T15:01:06.672Z,6.93
2019-02-07T15:06:10.451Z,7.40
2019-02-07T15:11:14.494Z,8.10
2019-02-07T15:16:18.882Z,7.40
2019-02-07T15:21:24.216Z,7.20
2019-02-07T15:26:28.487Z,7.50
2019-02-07T15:31:32.336Z,7.27
2019-02-07T15:36:36.963Z,8.00
2019-02-07T15:41:46.626Z,8.47
2019-02-07T15:46:51.098Z,7.07
2019-02-07T15:51:55.591Z,7.00
2019-02-07T15:56:59.442Z,7.20
2019-02-07T16:02:09.462Z,8.00
2019-02-07T16:07:13.475Z,6.40
2019-02-07T16:12:17.238Z,6.83
2019-02-07T16:17:21.795Z,7.57
2019-02-07T16:22:25.870Z,6.80
2019-02-07T16:27:29.797Z,7.07
2019-02-07T16:32:33.639Z,7.40
2019-02-07T16:37:37.463Z,7.40
2019-02-07T16:42:42.091Z,7.60
2019-02-07T16:47:46.189Z,7.00
2019-02-07T16:52:49.957Z,7.50
2019-02-07T16:57:53.758Z,7.50
2019-02-07T17:02:57.619Z,7.67
2019-02-07T17:08:01.432Z,7.43
2019-02-07T17:13:06.127Z,6.83
2019-02-07T17:18:10.431Z,7.43
2019-02-07T17:23:14.213Z,7.17
2019-02-07T17:28:18.057Z,5.57
2019-02-07T17:33:21.869Z,6.07
2019-02-07T17:38:25.671Z,6.63
2019-02-07T17:43:29.822Z,6.67
2019-02-07T17:48:33.804Z,6.70
2019-02-07T17:53:40.883Z,6.07
2019-02-07T17:58:44.299Z,6.57
2019-02-07T18:03:50.175Z,6.20
2019-02-07T18:08:54.985Z,5.87
2019-02-07T18:13:58.866Z,6.57
2019-02-07T18:19:02.692Z,6.17
2019-02-07T18:24:07.015Z,6.10
2019-02-07T18:29:10.779Z,6.17
2019-02-07T18:34:14.645Z,5.23
2019-02-07T18:39:18.513Z,6.10
2019-02-07T18:44:22.283Z,6.30
2019-02-07T18:49:26.221Z,7.20
2019-02-07T18:54:30.102Z,7.60
2019-02-07T18:59:33.858Z,7.50
2019-02-07T19:04:37.748Z,8.40
2019-02-07T19:09:41.753Z,7.37
2019-02-07T19:14:45.916Z,9.20
2019-02-07T19:19:49.762Z,10.60
2019-02-07T19:24:53.704Z,10.00
2019-02-07T19:29:57.536Z,7.90
2019-02-07T19:35:01.309Z,9.20
2019-02-07T19:40:07.058Z,10.17
2019-02-07T19:45:11.629Z,10.00
2019-02-07T19:50:17.869Z,10.30
2019-02-07T19:55:24.225Z,11.57
2019-02-07T20:00:30.656Z,10.10
2019-02-07T20:05:34.462Z,10.43
2019-02-07T20:10:40.880Z,10.93
2019-02-07T20:15:44.973Z,12.20
2019-02-07T20:20:50.369Z,11.70
2019-02-07T20:25:55.766Z,12.33
2019-02-07T20:30:59.550Z,12.10
2019-02-07T20:36:04.116Z,12.60
2019-02-07T20:41:07.957Z,13.20
2019-02-07T20:46:11.860Z,13.90
2019-02-07T20:51:16.815Z,13.70
2019-02-07T20:56:22.086Z,13.30
2019-02-07T21:01:25.806Z,13.50
2019-02-07T21:06:29.945Z,13.50
2019-02-07T21:11:33.798Z,13.70
2019-02-07T21:16:39.892Z,12.70
2019-02-07T21:21:43.638Z,12.50
2019-02-07T21:26:47.552Z,12.10
2019-02-07T21:31:51.985Z,12.40
2019-02-07T21:37:00.216Z,12.90
2019-02-07T21:42:04.517Z,12.50
2019-02-07T21:47:08.465Z,11.50
2019-02-07T21:52:12.683Z,12.77
2019-02-07T21:57:17.100Z,11.20
2019-02-07T22:02:20.939Z,11.40
2019-02-07T22:07:25.436Z,11.50
2019-02-07T22:12:31.418Z,11.10
2019-02-07T22:17:36.266Z,12.67
2019-02-07T22:22:40.571Z,11.00
2019-02-07T22:27:47.429Z,10.13
2019-02-07T22:32:51.502Z,10.20
2019-02-07T22:37:55.420Z,10.03
2019-02-07T22:43:18.690Z,9.30
2019-02-07T22:48:22.494Z,9.80
2019-02-07T22:53:28.264Z,9.03
2019-02-07T22:58:32.439Z,8.30
2019-02-07T23:03:39.773Z,8.93
2019-02-07T23:08:47.464Z,8.20
2019-02-07T23:13:52.002Z,8.80
2019-02-07T23:18:56.141Z,8.70
2019-02-07T23:24:02.402Z,8.40
2019-02-07T23:29:07.677Z,7.90
2019-02-07T23:34:11.671Z,7.13
2019-02-07T23:39:17.990Z,7.60
2019-02-07T23:44:23.099Z,7.73
2019-02-07T23:49:27.249Z,7.23
2019-02-07T23:54:31.057Z,7.80
2019-02-07T23:59:35.191Z,7.50
